Time;durP1;ratioP1;P1;durP2;ratioP2;P2;SDS_P1;SDS_P2;PMS_P1;PMS_P2;Temp;Humidity;BMP_temperature;BMP_pressure;BME280_temperature;BME280_humidity;BME280_pressure;Samples;Min_cycle;Max_cycle;Signal;HPM_P1;HPM_P2
2022/03/15 07:32:49;;;;;;;;;5.00;3.00;;;;;17.26;54.25;101927.41;5049905;27;45518;-75
2022/03/15 07:35:15;;;;;;;;;5.25;5.25;;;;;17.43;54.34;101925.44;5039249;28;45499;-73
2022/03/15 07:37:49;;;;;;;;;5.00;3.00;;;;;17.69;54.04;101925.59;5042515;28;45830;-75
2022/03/15 07:40:14;;;;;;;;;2.00;2.00;;;;;17.95;54.05;101920.28;5042082;28;45563;-74
2022/03/15 07:42:39;;;;;;;;;4.50;3.50;;;;;18.23;53.66;101921.16;5040548;28;45530;-75
2022/03/15 07:45:05;;;;;;;;;3.00;2.75;;;;;18.51;53.74;101906.66;5037633;28;47918;-74
2022/03/15 07:47:30;;;;;;;;;5.00;3.50;;;;;18.81;53.62;101910.84;5038419;28;45569;-72
2022/03/15 07:49:55;;;;;;;;;5.25;4.00;;;;;19.11;53.16;101914.19;5035218;28;45511;-73
2022/03/15 07:52:21;;;;;;;;;4.50;4.00;;;;;19.41;52.77;101912.94;5036190;28;45562;-73
2022/03/15 07:54:46;;;;;;;;;5.00;3.00;;;;;19.68;52.35;101914.56;5041883;28;45840;-73
2022/03/15 07:57:11;;;;;;;;;5.25;4.75;;;;;19.93;51.98;101912.72;5036220;28;45756;-73
2022/03/15 07:59:37;;;;;;;;;2.00;2.00;;;;;20.18;51.66;101907.34;5042147;28;45489;-73
2022/03/15 08:02:02;;;;;;;;;8.00;4.33;;;;;20.41;51.34;101906.41;5033053;28;46021;-73
2022/03/15 08:04:28;;;;;;;;;3.00;2.67;;;;;20.64;51.33;101913.69;5041869;28;48538;-73
2022/03/15 08:06:53;;;;;;;;;3.00;3.00;;;;;20.87;51.14;101902.94;5038807;28;45474;-72
2022/03/15 08:09:18;;;;;;;;;6.33;5.00;;;;;21.06;50.68;101896.94;5034450;28;46435;-74
2022/03/15 08:11:45;;;;;;;;;6.67;5.00;;;;;21.24;50.19;101891.88;5041131;28;46284;-74
2022/03/15 08:14:11;;;;;;;;;3.33;3.00;;;;;21.41;50.01;101885.06;5040741;28;46365;-73
2022/03/15 08:16:36;;;;;;;;;3.33;2.33;;;;;21.59;50.44;101896.19;5035638;28;45503;-74
2022/03/15 08:19:01;;;;;;;;;5.00;4.00;;;;;21.74;49.93;101892.38;5032198;28;45744;-74
2022/03/15 08:21:27;;;;;;;;;5.00;4.00;;;;;21.91;49.48;101899.06;5049832;28;48318;-73
2022/03/15 08:23:52;;;;;;;;;5.00;5.00;;;;;22.05;49.22;101903.28;5041402;28;45504;-73
2022/03/15 08:26:18;;;;;;;;;4.33;4.33;;;;;22.17;48.41;101904.97;5039150;28;45535;-74
2022/03/15 08:28:45;;;;;;;;;5.67;5.67;;;;;22.30;48.10;101906.59;5036522;28;45462;-74
2022/03/15 08:31:11;;;;;;;;;6.00;3.67;;;;;22.40;48.47;101906.69;5035926;28;46029;-72
2022/03/15 08:33:36;;;;;;;;;5.00;5.00;;;;;22.50;48.09;101910.28;5033236;28;45518;-73
2022/03/15 08:36:02;;;;;;;;;5.33;4.67;;;;;22.60;48.26;101913.94;5044772;28;45690;-73
2022/03/15 08:38:28;;;;;;;;;5.00;5.00;;;;;22.70;47.84;101914.00;5043404;28;45483;-73
2022/03/15 08:40:54;;;;;;;;;5.33;5.33;;;;;22.79;47.80;101914.16;5041269;28;47094;-74
2022/03/15 08:43:20;;;;;;;;;5.67;5.67;;;;;22.89;47.88;101915.09;5043783;28;45486;-74
2022/03/15 08:45:45;;;;;;;;;5.67;5.33;;;;;22.98;47.59;101910.69;5029119;28;45498;-74
2022/03/15 08:48:11;;;;;;;;;6.33;5.00;;;;;23.06;47.39;101913.59;5042174;28;45518;-75
2022/03/15 08:50:37;;;;;;;;;9.33;7.33;;;;;23.14;47.56;101921.03;5032315;28;45902;-73
2022/03/15 08:53:02;;;;;;;;;6.00;6.00;;;;;23.20;47.18;101923.19;5034095;28;45873;-74
2022/03/15 08:55:28;;;;;;;;;6.67;5.00;;;;;23.28;47.23;101917.94;5036109;28;45566;-75
2022/03/15 08:57:54;;;;;;;;;11.00;6.33;;;;;23.36;47.12;101933.53;5029764;28;45499;-74
2022/03/15 09:00:20;;;;;;;;;8.33;6.33;;;;;23.42;47.05;101932.97;5028201;28;46487;-73
2022/03/15 09:02:46;;;;;;;;;6.00;5.00;;;;;23.49;46.95;101935.97;5022801;28;45463;-72
2022/03/15 09:05:12;;;;;;;;;5.00;5.00;;;;;23.53;46.86;101939.25;5022126;28;45430;-72
2022/03/15 09:07:40;;;;;;;;;6.00;5.33;;;;;23.57;46.67;101943.41;5020590;28;45737;-74
2022/03/15 09:10:05;;;;;;;;;5.00;4.33;;;;;23.60;46.41;101939.53;5031753;28;46079;-73
2022/03/15 09:12:31;;;;;;;;;5.67;4.00;;;;;23.61;46.21;101931.28;5031497;28;45987;-74
2022/03/15 09:14:56;;;;;;;;;5.33;5.00;;;;;23.64;46.79;101920.16;5028846;28;45419;-74
2022/03/15 09:17:22;;;;;;;;;5.33;5.33;;;;;23.69;46.58;101927.88;5027884;28;45465;-74
2022/03/15 09:19:50;;;;;;;;;5.00;5.00;;;;;23.72;46.38;101933.03;5030618;28;45372;-74
2022/03/15 09:22:15;;;;;;;;;5.67;4.33;;;;;23.75;46.29;101930.00;5040685;28;45692;-73
2022/03/15 09:24:41;;;;;;;;;6.33;5.00;;;;;23.76;45.99;101936.28;5034441;28;45625;-74
2022/03/15 09:27:07;;;;;;;;;4.33;4.33;;;;;23.80;45.87;101937.72;5030531;28;45714;-75
2022/03/15 09:29:32;;;;;;;;;7.67;5.00;;;;;23.85;45.86;101931.88;5029091;28;46039;-73
2022/03/15 09:31:58;;;;;;;;;4.33;4.00;;;;;23.88;46.25;101934.31;5029613;28;45973;-74
2022/03/15 09:34:25;;;;;;;;;4.00;3.67;;;;;23.92;45.59;101933.88;5027023;28;45539;-75
2022/03/15 09:36:50;;;;;;;;;8.00;7.00;;;;;23.97;46.28;101936.16;5035721;28;45396;-74
2022/03/15 09:39:16;;;;;;;;;9.00;6.00;;;;;24.02;45.01;101930.28;5032472;28;45490;-71
2022/03/15 09:41:43;;;;;;;;;7.67;5.00;;;;;23.96;43.76;101920.91;5032573;28;45443;-71
2022/03/15 09:44:10;;;;;;;;;7.33;7.33;;;;;23.85;43.22;101921.88;5032244;28;45481;-70
2022/03/15 09:46:43;;;;;;;;;5.33;4.00;;;;;23.73;43.24;101917.59;5030527;28;45480;-73
2022/03/15 09:49:09;;;;;;;;;4.33;4.33;;;;;23.66;43.69;101922.72;5031883;28;46519;-71
2022/03/15 09:51:36;;;;;;;;;6.67;4.00;;;;;23.67;43.68;101921.75;5041436;28;45479;-71
2022/03/15 09:54:06;;;;;;;;;5.33;4.67;;;;;23.71;43.81;101915.06;5042154;28;45953;-71
2022/03/15 09:56:38;;;;;;;;;4.00;4.00;;;;;23.76;44.23;101910.06;5028469;28;45586;-71
2022/03/15 09:59:14;;;;;;;;;4.00;4.00;;;;;23.83;44.05;101899.50;5038199;28;47244;-72
2022/03/15 10:01:41;;;;;;;;;4.00;4.00;;;;;23.90;43.98;101907.91;5041190;28;45757;-72
2022/03/15 10:04:07;;;;;;;;;5.33;5.33;;;;;23.96;43.91;101899.22;5044024;28;45809;-72
2022/03/15 10:06:33;;;;;;;;;3.67;3.67;;;;;24.03;44.17;101905.75;5045049;28;45652;-73
2022/03/15 10:08:58;;;;;;;;;4.00;4.00;;;;;24.10;44.02;101894.38;5028013;28;46079;-72
2022/03/15 10:11:24;;;;;;;;;6.00;6.00;;;;;24.15;43.58;101892.94;5028000;28;56407;-73
2022/03/15 10:13:50;;;;;;;;;4.67;4.67;;;;;24.18;44.12;101895.34;5027726;28;45495;-74
2022/03/15 10:16:16;;;;;;;;;5.33;5.00;;;;;24.24;43.95;101890.34;5030547;28;45473;-73
2022/03/15 10:18:55;;;;;;;;;5.67;5.00;;;;;24.28;44.21;101891.78;5032072;28;45506;-73
2022/03/15 10:21:24;;;;;;;;;7.33;6.00;;;;;24.34;44.03;101897.47;5042420;28;45470;-74
2022/03/15 10:23:54;;;;;;;;;8.00;6.67;;;;;24.38;43.86;101891.75;5030740;28;45653;-74
2022/03/15 10:26:27;;;;;;;;;7.00;5.67;;;;;24.43;44.16;101892.16;5027794;28;45444;-74
2022/03/15 10:28:54;;;;;;;;;6.33;6.00;;;;;24.47;43.86;101901.72;5039450;28;45388;-74
2022/03/15 10:31:24;;;;;;;;;9.67;8.00;;;;;24.51;44.02;101899.56;5030547;28;45479;-74
2022/03/15 10:33:51;;;;;;;;;7.67;7.67;;;;;24.55;43.75;101898.25;5029555;28;45432;-73
2022/03/15 10:36:18;;;;;;;;;6.00;6.00;;;;;24.60;43.86;101893.25;5030433;28;45321;-73
2022/03/15 10:38:48;;;;;;;;;6.00;6.00;;;;;24.64;43.67;101908.22;5022758;28;46089;-72
2022/03/15 10:41:15;;;;;;;;;9.67;8.00;;;;;24.66;43.69;101899.94;5027111;28;45775;-73
2022/03/15 10:43:41;;;;;;;;;10.67;10.33;;;;;24.70;43.85;101901.38;5037508;28;45471;-73
2022/03/15 10:46:10;;;;;;;;;8.67;8.67;;;;;24.73;43.69;101895.66;5032211;28;45463;-74
2022/03/15 10:48:36;;;;;;;;;11.33;9.67;;;;;24.77;43.25;101904.34;5042648;28;47255;-73
2022/03/15 10:51:10;;;;;;;;;10.33;9.00;;;;;24.77;43.41;101899.75;5031695;28;45481;-72
2022/03/15 10:53:39;;;;;;;;;7.33;6.00;;;;;24.79;43.55;101899.59;5027350;28;45883;-72
2022/03/15 10:56:15;;;;;;;;;7.67;6.67;;;;;24.78;42.96;101889.75;5036430;28;45481;-72
2022/03/15 10:58:47;;;;;;;;;4.33;4.33;;;;;24.69;41.64;101891.50;5029687;28;46147;-70
2022/03/15 11:01:13;;;;;;;;;6.33;5.33;;;;;24.55;41.45;101871.13;5028820;28;45533;-71
2022/03/15 11:03:38;;;;;;;;;6.33;4.67;;;;;24.40;41.15;101868.03;5030825;28;45439;-72
2022/03/15 11:06:08;;;;;;;;;7.00;5.33;;;;;24.26;41.38;101861.22;5034369;28;45721;-72
2022/03/15 11:08:39;;;;;;;;;4.33;3.00;;;;;24.13;41.45;101850.69;5034268;28;47150;-72
2022/03/15 11:11:06;;;;;;;;;7.33;3.00;;;;;23.98;41.27;101842.97;5033536;28;45431;-72
2022/03/15 11:13:32;;;;;;;;;6.33;4.67;;;;;23.87;41.54;101846.69;5026510;28;45356;-72
2022/03/15 11:15:59;;;;;;;;;3.33;3.33;;;;;23.78;41.42;101852.97;5033052;28;45507;-73
2022/03/15 11:18:30;;;;;;;;;5.33;5.33;;;;;23.65;41.14;101851.41;5033118;28;47042;-72
2022/03/15 11:20:58;;;;;;;;;6.67;5.33;;;;;23.55;41.59;101861.41;5025699;28;45798;-72
2022/03/15 11:23:25;;;;;;;;;5.00;5.00;;;;;23.45;41.68;101863.25;5029789;28;45800;-72
2022/03/15 11:26:05;;;;;;;;;5.33;5.00;;;;;23.33;41.67;101862.53;5028030;28;45783;-72
2022/03/15 11:28:34;;;;;;;;;4.33;3.67;;;;;23.25;41.73;101863.16;5026949;28;45807;-73
2022/03/15 11:31:00;;;;;;;;;5.00;5.00;;;;;23.16;41.97;101860.31;5030802;28;45328;-73
2022/03/15 11:33:27;;;;;;;;;6.67;5.00;;;;;23.10;42.00;101860.00;5021133;28;45345;-73
2022/03/15 11:35:53;;;;;;;;;6.33;5.00;;;;;23.04;41.74;101861.41;5028913;28;45595;-72
2022/03/15 11:38:19;;;;;;;;;4.67;4.67;;;;;22.97;42.01;101860.25;5027994;28;47161;-72
2022/03/15 11:40:46;;;;;;;;;5.00;5.00;;;;;22.91;42.31;101856.25;5027384;28;45375;-73
2022/03/15 11:43:56;;;;;;;;;5.00;5.00;;;;;22.85;42.27;101865.75;5033615;28;45497;-72
2022/03/15 11:46:43;;;;;;;;;5.00;5.00;;;;;22.79;42.21;101873.56;5025877;28;45463;-72
2022/03/15 11:49:31;;;;;;;;;4.33;3.00;;;;;22.73;42.38;101870.41;5026001;28;46201;-73
2022/03/15 11:52:12;;;;;;;;;5.33;5.00;;;;;22.69;42.40;101862.72;5016696;28;45482;-72
2022/03/15 11:54:54;;;;;;;;;7.00;7.00;;;;;22.63;42.70;101862.28;5032990;28;45960;-72
2022/03/15 11:57:34;;;;;;;;;6.00;5.00;;;;;22.59;42.45;101854.53;5034299;28;45327;-72
2022/03/15 12:00:00;;;;;;;;;5.00;4.67;;;;;22.56;42.79;101854.84;5017190;28;46384;-72
2022/03/15 12:02:47;;;;;;;;;6.00;6.00;;;;;22.53;42.36;101850.53;5030103;28;45513;-72
2022/03/15 12:05:16;;;;;;;;;6.67;6.00;;;;;22.50;43.07;101854.34;5028578;28;45514;-72
2022/03/15 12:07:46;;;;;;;;;5.67;5.00;;;;;22.49;42.74;101865.31;5030230;28;50224;-72
2022/03/15 12:10:22;;;;;;;;;7.00;5.00;;;;;22.46;42.95;101861.03;5033986;28;45514;-72
2022/03/15 12:12:58;;;;;;;;;5.00;5.00;;;;;22.43;42.97;101857.72;5024164;28;45606;-73
2022/03/15 12:15:34;;;;;;;;;7.67;7.67;;;;;22.37;42.93;101856.41;5032784;28;45458;-73
2022/03/15 12:18:14;;;;;;;;;10.00;10.00;;;;;22.35;42.89;101851.13;5029827;28;45392;-72
2022/03/15 12:20:46;;;;;;;;;10.00;9.33;;;;;22.32;43.20;101851.38;5035945;28;47209;-72
2022/03/15 12:23:25;;;;;;;;;6.67;6.67;;;;;22.28;43.16;101851.81;5033911;28;45457;-72
2022/03/15 12:25:53;;;;;;;;;9.00;6.67;;;;;22.25;43.09;101855.63;5033316;28;45337;-72
2022/03/15 12:28:29;;;;;;;;;8.33;8.33;;;;;22.22;43.21;101848.63;5033874;28;45555;-72
2022/03/15 12:31:06;;;;;;;;;8.00;7.00;;;;;22.19;43.34;101848.06;5035704;28;45434;-73
2022/03/15 12:33:32;;;;;;;;;6.33;6.33;;;;;22.15;43.31;101850.16;5032042;28;45660;-72
2022/03/15 12:36:09;;;;;;;;;9.67;6.67;;;;;22.14;43.07;101845.72;5031555;28;45305;-72
2022/03/15 12:38:42;;;;;;;;;11.67;7.33;;;;;22.11;43.47;101841.44;5030259;28;45547;-72
2022/03/15 12:41:08;;;;;;;;;7.33;7.33;;;;;22.09;43.12;101838.03;5037493;28;46569;-73
2022/03/15 12:43:35;;;;;;;;;9.67;8.00;;;;;22.07;43.63;101836.47;5032930;28;45525;-72
2022/03/15 12:46:07;;;;;;;;;12.67;10.00;;;;;22.06;43.45;101829.31;5032227;28;45597;-72
2022/03/15 12:48:37;;;;;;;;;16.67;12.67;;;;;22.01;43.62;101827.00;5037291;28;45585;-72
2022/03/15 12:51:04;;;;;;;;;17.25;16.50;;;;;21.96;43.53;101823.84;5035602;28;46022;-72
2022/03/15 12:53:42;;;;;;;;;15.75;15.50;;;;;21.92;43.84;101817.00;5030912;28;45487;-71
2022/03/15 12:56:10;;;;;;;;;15.67;15.00;;;;;21.91;43.72;101812.59;5033591;28;45424;-73
2022/03/15 12:58:36;;;;;;;;;15.67;15.00;;;;;21.90;43.72;101806.31;5021333;28;45440;-74
2022/03/15 13:01:03;;;;;;;;;19.67;18.33;;;;;21.92;43.86;101804.34;5032915;28;45832;-73
2022/03/15 13:03:29;;;;;;;;;18.00;15.67;;;;;21.97;44.09;101806.63;5033757;28;45448;-73
2022/03/15 13:05:55;;;;;;;;;13.33;12.33;;;;;22.02;44.58;101799.00;5032016;28;45400;-73
2022/03/15 13:08:21;;;;;;;;;10.33;10.33;;;;;22.06;44.56;101797.75;5026456;28;46285;-74
2022/03/15 13:10:48;;;;;;;;;18.00;16.33;;;;;22.12;44.48;101801.75;5029082;28;45543;-71
2022/03/15 13:13:18;;;;;;;;;17.33;14.67;;;;;22.16;44.22;101792.41;5034625;28;45504;-72
2022/03/15 13:15:48;;;;;;;;;18.67;15.00;;;;;22.17;44.26;101794.09;5039971;28;46842;-73
2022/03/15 13:18:17;;;;;;;;;15.33;12.33;;;;;22.22;44.16;101796.41;5027153;28;45454;-74
2022/03/15 13:20:43;;;;;;;;;13.67;13.67;;;;;22.24;44.60;101787.16;5034600;28;46084;-73
2022/03/15 13:23:08;;;;;;;;;19.67;14.33;;;;;22.28;44.28;101781.47;5027624;28;45440;-73
2022/03/15 13:25:43;;;;;;;;;16.67;15.00;;;;;22.30;44.14;101791.19;5026008;28;46509;-73
2022/03/15 14:44:21;;;;;;;;;13.00;12.75;;;;;18.44;50.58;101749.47;5109651;27;45541;-76
2022/03/15 14:46:48;;;;;;;;;17.25;15.25;;;;;18.58;50.37;101737.72;5103325;27;45852;-76
2022/03/15 14:49:14;;;;;;;;;14.75;12.00;;;;;18.75;50.56;101739.16;5108877;27;45574;-75
2022/03/15 14:51:40;;;;;;;;;15.00;14.50;;;;;18.96;50.82;101739.41;5105434;27;45565;-75
2022/03/15 14:54:06;;;;;;;;;16.00;12.25;;;;;19.18;50.71;101737.00;5095805;27;46030;-75
2022/03/15 14:56:38;;;;;;;;;12.75;12.25;;;;;19.41;50.51;101737.94;5095847;27;45411;-75
2022/03/15 14:59:06;;;;;;;;;16.50;16.50;;;;;19.61;49.85;101733.72;5100845;27;45438;-74
2022/03/15 15:01:32;;;;;;;;;16.25;13.75;;;;;19.82;49.26;101729.50;5105416;27;45445;-72
2022/03/15 15:03:58;;;;;;;;;16.50;12.75;;;;;19.99;48.93;101725.50;5106967;27;47426;-76
2022/03/15 15:06:24;;;;;;;;;13.25;9.75;;;;;20.14;49.03;101723.41;5096444;27;45436;-75
2022/03/15 15:08:50;;;;;;;;;15.75;11.50;;;;;20.29;48.85;101718.66;5097068;27;46446;-74
2022/03/15 15:11:18;;;;;;;;;12.00;12.00;;;;;20.45;48.23;101715.56;5097666;27;45472;-75
2022/03/15 15:13:45;;;;;;;;;13.25;11.50;;;;;20.59;48.47;101719.84;5105138;27;45540;-74
2022/03/15 15:16:11;;;;;;;;;15.75;12.50;;;;;20.74;48.03;101711.47;5107619;27;45778;-76
2022/03/15 15:18:41;;;;;;;;;11.25;11.00;;;;;20.84;48.39;101715.13;5097073;27;45718;-76
2022/03/15 15:21:07;;;;;;;;;11.50;11.25;;;;;20.97;47.69;101712.28;5098172;27;45426;-76
2022/03/15 15:23:35;;;;;;;;;12.50;12.50;;;;;21.08;48.01;101724.88;5098166;27;50541;-74
2022/03/15 15:26:03;;;;;;;;;17.25;12.75;;;;;21.17;47.58;101721.41;5095730;27;45406;-74
2022/03/15 15:28:29;;;;;;;;;10.75;10.75;;;;;21.26;47.47;101719.78;5095807;27;45444;-74
2022/03/15 15:30:54;;;;;;;;;13.00;10.33;;;;;21.36;47.84;101724.41;5110178;27;45506;-74
2022/03/15 15:33:19;;;;;;;;;9.50;9.50;;;;;21.42;47.19;101719.34;5095906;27;46061;-74
2022/03/15 15:35:45;;;;;;;;;11.00;9.00;;;;;21.50;47.08;101717.84;5100305;27;45447;-73
2022/03/15 15:38:13;;;;;;;;;12.00;11.33;;;;;21.57;47.55;101719.00;5103401;27;45677;-75
2022/03/15 15:40:40;;;;;;;;;10.67;10.67;;;;;21.64;47.35;101711.25;5104215;27;45415;-74
2022/03/15 15:43:07;;;;;;;;;10.33;10.33;;;;;21.69;47.37;101709.00;5092356;27;47351;-75
2022/03/15 15:45:33;;;;;;;;;11.67;8.33;;;;;21.75;46.92;101713.06;5093357;27;45653;-75
2022/03/15 15:47:58;;;;;;;;;6.00;6.00;;;;;21.78;47.21;101719.03;5095065;27;45383;-72
2022/03/15 15:50:29;;;;;;;;;10.00;9.33;;;;;21.81;45.48;101718.78;5100603;27;45449;-72
2022/03/15 15:52:56;;;;;;;;;11.00;9.67;;;;;21.80;45.38;101714.38;5100769;27;46316;-71
2022/03/15 15:55:22;;;;;;;;;13.33;12.00;;;;;21.80;45.21;101714.38;5083102;27;45494;-72
2022/03/15 15:57:48;;;;;;;;;13.33;12.67;;;;;21.79;45.37;101712.63;5078375;27;45421;-74
2022/03/15 16:00:14;;;;;;;;;12.00;10.67;;;;;21.83;45.53;101715.97;5092208;27;45389;-74
2022/03/15 16:02:42;;;;;;;;;11.33;11.00;;;;;21.85;45.99;101720.22;5081603;27;46351;-75
2022/03/15 16:05:13;;;;;;;;;10.33;10.33;;;;;21.87;45.54;101714.69;5088185;27;45493;-73
2022/03/15 16:07:45;;;;;;;;;10.00;9.00;;;;;21.90;46.19;101703.59;5090498;27;45827;-74
2022/03/15 16:10:13;;;;;;;;;13.00;11.00;;;;;21.92;45.56;101709.75;5082518;27;47031;-74
2022/03/15 16:12:38;;;;;;;;;9.67;9.67;;;;;21.94;45.98;101709.59;5093274;27;46034;-74
2022/03/15 16:15:04;;;;;;;;;13.33;12.00;;;;;21.96;46.07;101710.31;5092007;27;53006;-73
2022/03/15 16:17:30;;;;;;;;;12.67;11.33;;;;;21.96;45.44;101713.03;5091231;27;45455;-75
2022/03/15 16:19:55;;;;;;;;;10.33;9.67;;;;;21.97;45.62;101715.59;5091371;27;45393;-73
2022/03/15 16:22:20;;;;;;;;;14.33;11.33;;;;;21.99;45.95;101715.47;5091211;27;46561;-76
2022/03/15 16:24:46;;;;;;;;;10.67;10.67;;;;;22.03;45.43;101708.78;5091563;27;45334;-75
2022/03/15 16:27:13;;;;;;;;;9.67;9.67;;;;;22.06;45.57;101722.03;5088432;27;45406;-75
2022/03/15 16:29:38;;;;;;;;;9.67;9.33;;;;;22.08;45.64;101713.81;5091388;27;45431;-74
2022/03/15 16:32:04;;;;;;;;;9.67;9.00;;;;;22.10;45.53;101718.06;5091090;27;45392;-74
2022/03/15 16:34:30;;;;;;;;;8.33;8.33;;;;;22.12;45.43;101715.25;5088308;27;45729;-75
2022/03/15 16:36:59;;;;;;;;;12.00;9.67;;;;;22.14;45.50;101723.22;5091936;27;45405;-75
2022/03/15 16:39:24;;;;;;;;;8.67;7.33;;;;;22.16;45.26;101722.09;5094179;27;45541;-75
2022/03/15 16:41:50;;;;;;;;;11.00;10.00;;;;;22.16;45.58;101730.22;5093273;27;45469;-75
2022/03/15 16:44:15;;;;;;;;;14.00;12.00;;;;;22.16;45.32;101724.81;5089143;27;45898;-80
2022/03/15 16:46:40;;;;;;;;;10.33;10.33;;;;;22.17;45.25;101731.91;5088775;27;45467;-77
2022/03/15 16:49:06;;;;;;;;;9.33;9.00;;;;;22.19;45.66;101731.78;5086563;27;45655;-76
2022/03/15 16:51:31;;;;;;;;;9.67;9.67;;;;;22.20;45.73;101731.63;5079081;27;51387;-74
2022/03/15 16:53:56;;;;;;;;;10.33;10.33;;;;;22.21;45.06;101744.19;5081012;27;45792;-75
2022/03/15 16:56:22;;;;;;;;;12.00;12.00;;;;;22.21;45.11;101741.47;5092192;27;45760;-71
2022/03/15 17:01:31;;;;;;;;;10.00;8.33;;;;;22.23;45.92;101742.19;5082468;27;45909;-73
2022/03/15 17:06:41;;;;;;;;;10.33;9.00;;;;;22.32;45.67;101739.66;5092758;27;45500;-73
2022/03/15 17:09:06;;;;;;;;;11.33;7.33;;;;;22.38;45.69;101742.69;5097213;27;45861;-73
2022/03/15 17:11:32;;;;;;;;;8.33;7.67;;;;;22.43;45.95;101742.25;5085514;27;45411;-76
2022/03/15 17:13:57;;;;;;;;;12.00;10.67;;;;;22.50;45.45;101738.03;5079973;27;45550;-75
2022/03/15 17:16:23;;;;;;;;;10.33;8.67;;;;;22.57;46.08;101742.91;5089893;27;45601;-73
2022/03/15 17:18:51;;;;;;;;;7.33;7.33;;;;;22.62;45.90;101746.91;5075857;27;45558;-73
2022/03/15 17:21:17;;;;;;;;;6.00;6.00;;;;;22.69;45.41;101746.34;5111003;27;47096;-73
2022/03/15 17:23:46;;;;;;;;;6.67;6.67;;;;;22.75;45.30;101749.38;5079844;27;45512;-74
2022/03/15 17:26:19;;;;;;;;;6.67;6.33;;;;;22.83;45.67;101750.50;5096884;27;45333;-76
2022/03/15 17:28:45;;;;;;;;;10.00;10.00;;;;;22.86;44.62;101751.09;5080039;27;45627;-73
2022/03/15 17:31:16;;;;;;;;;10.33;8.67;;;;;22.83;43.96;101751.38;5078031;27;46231;-73
2022/03/15 17:33:42;;;;;;;;;5.67;5.67;;;;;22.79;44.12;101746.38;5076367;27;45523;-73
2022/03/15 17:36:10;;;;;;;;;10.33;10.33;;;;;22.75;43.83;101753.91;5081202;27;45339;-73
2022/03/15 17:38:36;;;;;;;;;10.00;9.33;;;;;22.71;43.85;101755.19;5080023;27;45510;-73
2022/03/15 17:41:03;;;;;;;;;8.67;8.00;;;;;22.66;43.46;101760.16;5079498;27;45226;-73
2022/03/15 17:43:28;;;;;;;;;8.00;7.00;;;;;22.60;43.77;101751.59;5079349;27;45221;-72
2022/03/15 17:45:54;;;;;;;;;7.33;7.33;;;;;22.57;43.54;101760.00;5075848;27;45583;-72
2022/03/15 17:48:21;;;;;;;;;8.33;7.00;;;;;22.54;43.82;101762.97;5088211;27;45516;-73
2022/03/15 17:50:49;;;;;;;;;7.67;7.67;;;;;22.52;43.43;101770.31;5079807;27;45367;-73
2022/03/15 17:53:21;;;;;;;;;11.33;7.00;;;;;22.48;43.75;101772.47;5085317;27;45467;-73
2022/03/15 17:55:51;;;;;;;;;7.67;7.67;;;;;22.50;44.14;101781.31;5096039;27;47929;-74
2022/03/15 17:58:21;;;;;;;;;7.00;7.00;;;;;22.52;44.60;101778.44;5078532;27;45423;-74
2022/03/15 18:00:49;;;;;;;;;9.33;6.33;;;;;22.55;44.57;101771.94;5092769;27;45426;-73
2022/03/15 18:03:15;;;;;;;;;9.33;8.00;;;;;22.58;44.78;101775.25;5093851;27;45520;-73
2022/03/15 18:05:41;;;;;;;;;7.67;7.00;;;;;22.61;45.04;101776.81;5081201;27;46039;-76
2022/03/15 18:08:06;;;;;;;;;9.67;9.67;;;;;22.63;45.10;101769.41;5089388;27;45497;-73
2022/03/15 18:10:47;;;;;;;;;12.33;9.00;;;;;22.65;45.17;101767.44;5101916;27;45553;-75
2022/03/15 18:13:13;;;;;;;;;9.00;9.00;;;;;22.69;45.07;101773.41;5078443;27;51205;-73
2022/03/15 18:15:40;;;;;;;;;5.67;5.67;;;;;22.69;45.35;101774.28;5076282;27;45450;-73
2022/03/15 18:18:08;;;;;;;;;13.33;12.33;;;;;22.71;44.68;101775.00;5086114;27;47276;-74
2022/03/15 18:20:46;;;;;;;;;8.67;7.00;;;;;22.72;44.98;101773.16;5086533;27;47490;-74
2022/03/15 18:23:16;;;;;;;;;9.00;9.00;;;;;22.73;45.20;101775.69;5083628;27;45403;-74
2022/03/15 18:25:44;;;;;;;;;12.00;9.00;;;;;22.74;45.19;101782.84;5094347;27;45418;-75
2022/03/15 18:28:10;;;;;;;;;11.00;9.00;;;;;22.75;44.59;101784.56;5084696;27;45702;-75
2022/03/15 18:30:38;;;;;;;;;8.67;8.33;;;;;22.75;44.38;101784.56;5091358;27;45440;-75
2022/03/15 18:33:06;;;;;;;;;11.33;9.00;;;;;22.75;44.84;101781.84;5088603;27;45417;-75
2022/03/15 18:35:37;;;;;;;;;10.67;7.67;;;;;22.79;44.77;101786.97;5090402;27;45496;-75
2022/03/15 18:38:04;;;;;;;;;9.67;7.00;;;;;22.79;44.64;101789.66;5085198;27;45542;-75
2022/03/15 18:40:33;;;;;;;;;9.00;8.00;;;;;22.81;45.08;101793.94;5086596;27;46534;-74
2022/03/15 18:43:09;;;;;;;;;9.00;9.00;;;;;22.83;45.04;101804.63;5074719;27;45624;-75
2022/03/15 18:45:39;;;;;;;;;7.67;7.67;;;;;22.83;44.99;101797.38;5088793;27;45378;-75
2022/03/15 18:48:07;;;;;;;;;14.33;10.33;;;;;22.84;45.13;101788.25;5090150;27;46468;-75
2022/03/15 18:50:34;;;;;;;;;8.33;7.67;;;;;22.86;45.37;101788.13;5087091;27;46123;-75
2022/03/15 18:53:00;;;;;;;;;8.00;7.00;;;;;22.87;45.28;101790.72;5088490;27;45464;-74
2022/03/15 18:55:25;;;;;;;;;9.00;7.00;;;;;22.88;45.28;101783.41;5089048;27;45636;-74
